createdAt,value
2023-10-04T00:02:07.594Z,2.93
2023-10-04T00:04:35.080Z,3.17
2023-10-04T00:07:03.948Z,2.77
2023-10-04T00:09:32.401Z,2.67
2023-10-04T00:11:59.772Z,2.67
2023-10-04T00:14:26.908Z,3.03
2023-10-04T00:16:56.292Z,3.23
2023-10-04T00:19:23.272Z,2.43
2023-10-04T00:21:51.921Z,3.03
2023-10-04T00:24:19.498Z,2.40
2023-10-04T00:26:46.551Z,2.47
2023-10-04T00:29:14.670Z,3.07
2023-10-04T00:31:43.000Z,3.40
2023-10-04T00:34:10.404Z,3.30
2023-10-04T00:36:37.829Z,3.10
2023-10-04T00:39:07.249Z,4.53
2023-10-04T00:41:35.272Z,2.80
2023-10-04T00:44:03.250Z,3.00
2023-10-04T00:46:33.814Z,3.03
2023-10-04T00:49:01.104Z,3.53
2023-10-04T00:51:36.110Z,2.63
2023-10-04T00:54:04.170Z,3.03
2023-10-04T00:56:31.178Z,3.80
2023-10-04T00:59:03.846Z,2.53
2023-10-04T01:01:31.114Z,2.70
2023-10-04T01:03:58.749Z,2.60
2023-10-04T01:06:25.986Z,3.00
2023-10-04T01:08:53.566Z,3.10
2023-10-04T01:11:22.516Z,3.47
2023-10-04T01:13:54.137Z,3.77
2023-10-04T01:16:24.420Z,2.63
2023-10-04T01:18:52.059Z,3.17
2023-10-04T01:21:19.171Z,2.77
2023-10-04T01:23:46.703Z,4.07
2023-10-04T01:26:26.001Z,2.80
2023-10-04T01:28:53.485Z,3.70
2023-10-04T01:31:20.461Z,2.80
2023-10-04T01:33:48.490Z,3.60
2023-10-04T01:36:15.499Z,2.83
2023-10-04T01:38:43.467Z,3.30
2023-10-04T01:41:10.846Z,3.30
2023-10-04T01:43:39.035Z,2.77
2023-10-04T01:46:06.493Z,2.97
2023-10-04T01:48:35.445Z,3.20
2023-10-04T01:51:04.840Z,2.80
2023-10-04T01:53:33.806Z,3.10
2023-10-04T01:56:00.915Z,4.17
2023-10-04T01:58:28.236Z,3.40
2023-10-04T02:00:56.375Z,3.47
2023-10-04T02:03:24.006Z,3.40
2023-10-04T02:05:51.102Z,2.63
2023-10-04T02:08:18.087Z,2.80
2023-10-04T02:10:45.245Z,3.10
2023-10-04T02:13:15.739Z,3.37
2023-10-04T02:15:44.952Z,3.83
2023-10-04T02:18:12.342Z,3.63
2023-10-04T02:20:39.666Z,3.60
2023-10-04T02:23:08.140Z,3.80
2023-10-04T02:25:35.331Z,3.40
2023-10-04T02:28:09.373Z,2.80
2023-10-04T02:30:36.661Z,4.87
2023-10-04T02:33:14.725Z,3.63
2023-10-04T02:35:44.549Z,2.97
2023-10-04T02:38:17.258Z,3.20
2023-10-04T02:40:44.255Z,4.37
2023-10-04T02:43:11.500Z,2.90
2023-10-04T02:45:40.824Z,3.40
2023-10-04T02:48:10.084Z,3.20
2023-10-04T02:50:40.013Z,3.23
2023-10-04T02:53:07.748Z,3.23
2023-10-04T02:55:36.815Z,2.70
2023-10-04T02:58:06.030Z,3.43
2023-10-04T03:00:33.735Z,3.87
2023-10-04T03:03:01.159Z,4.37
2023-10-04T03:05:29.811Z,3.67
2023-10-04T03:07:56.874Z,3.47
2023-10-04T03:10:27.596Z,3.13
2023-10-04T03:12:56.586Z,3.27
2023-10-04T03:15:24.099Z,3.93
2023-10-04T03:17:52.416Z,3.77
2023-10-04T03:20:21.236Z,4.17
2023-10-04T03:22:49.834Z,4.00
2023-10-04T03:25:17.738Z,4.07
2023-10-04T03:27:45.326Z,4.40
2023-10-04T03:30:15.120Z,4.10
2023-10-04T03:32:44.302Z,4.23
2023-10-04T03:35:14.843Z,4.00
2023-10-04T03:37:50.880Z,4.07
2023-10-04T03:40:18.267Z,4.73
2023-10-04T03:42:46.858Z,4.50
2023-10-04T03:45:18.221Z,4.33
2023-10-04T03:47:46.101Z,4.17
2023-10-04T03:50:13.148Z,4.40
2023-10-04T03:52:40.788Z,3.87
2023-10-04T03:55:10.162Z,4.00
2023-10-04T03:57:42.399Z,3.60
2023-10-04T04:00:17.521Z,4.77
2023-10-04T04:02:44.791Z,5.30
2023-10-04T04:05:14.566Z,4.53
2023-10-04T04:07:41.991Z,4.23
2023-10-04T04:10:09.497Z,4.60
2023-10-04T04:12:37.752Z,4.43
2023-10-04T04:15:09.257Z,4.83
2023-10-04T04:17:36.730Z,4.90
2023-10-04T04:20:08.546Z,4.63
2023-10-04T04:22:35.774Z,3.70
2023-10-04T04:25:11.457Z,5.00
2023-10-04T04:27:39.163Z,4.73
2023-10-04T04:30:10.159Z,4.60
2023-10-04T04:32:37.304Z,4.30
2023-10-04T04:35:08.267Z,5.00
2023-10-04T04:37:37.188Z,5.27
2023-10-04T04:40:09.190Z,4.40
2023-10-04T04:42:38.647Z,4.40
2023-10-04T04:45:08.964Z,4.57
2023-10-04T04:47:37.550Z,4.10
2023-10-04T04:50:05.138Z,4.60
2023-10-04T04:52:33.899Z,4.00
2023-10-04T04:55:01.164Z,4.40
2023-10-04T04:57:28.574Z,4.50
2023-10-04T04:59:57.165Z,3.97
2023-10-04T05:02:28.808Z,5.17
2023-10-04T05:04:55.858Z,4.97
2023-10-04T05:07:22.887Z,4.33
2023-10-04T05:09:49.856Z,4.73
2023-10-04T05:12:16.662Z,4.97
2023-10-04T05:14:43.950Z,5.93
2023-10-04T05:17:11.116Z,4.53
2023-10-04T05:19:39.246Z,4.47
2023-10-04T05:22:06.264Z,3.97
2023-10-04T05:24:33.339Z,4.53
2023-10-04T05:27:02.851Z,4.03
2023-10-04T05:29:30.079Z,3.93
2023-10-04T05:31:57.132Z,5.27
2023-10-04T05:34:24.274Z,4.57
2023-10-04T05:36:52.527Z,3.50
2023-10-04T05:39:20.125Z,3.60
2023-10-04T05:41:47.066Z,4.10
2023-10-04T05:44:14.121Z,4.13
2023-10-04T05:46:44.785Z,3.87
2023-10-04T05:49:11.941Z,4.70
2023-10-04T05:51:39.813Z,4.40
2023-10-04T05:54:08.518Z,4.03
2023-10-04T05:56:37.199Z,4.03
2023-10-04T05:59:06.635Z,3.70
2023-10-04T06:01:34.686Z,4.13
2023-10-04T06:04:01.602Z,3.90
2023-10-04T06:06:28.735Z,3.50
2023-10-04T06:08:57.517Z,3.93
2023-10-04T06:11:26.733Z,3.67
2023-10-04T06:13:53.707Z,3.73
2023-10-04T06:16:20.878Z,4.07
2023-10-04T06:18:50.069Z,4.23
2023-10-04T06:21:17.268Z,3.67
2023-10-04T06:23:44.484Z,3.60
2023-10-04T06:26:17.202Z,3.50
2023-10-04T06:28:44.724Z,4.17
2023-10-04T06:31:11.720Z,3.80
2023-10-04T06:33:40.956Z,3.53
2023-10-04T06:36:09.545Z,3.77
2023-10-04T06:38:36.567Z,4.33
2023-10-04T06:41:04.130Z,4.00
2023-10-04T06:43:31.150Z,3.40
2023-10-04T06:45:59.568Z,3.33
2023-10-04T06:48:26.581Z,3.40
2023-10-04T06:50:53.581Z,4.00
2023-10-04T06:53:23.054Z,4.67
2023-10-04T06:55:50.017Z,3.57
2023-10-04T06:58:16.678Z,3.57
2023-10-04T07:00:44.161Z,3.90
2023-10-04T07:03:12.517Z,3.50
2023-10-04T07:05:41.076Z,2.90
2023-10-04T07:08:09.876Z,3.70
2023-10-04T07:10:37.230Z,4.50
2023-10-04T07:13:06.285Z,3.80
2023-10-04T07:15:35.753Z,3.50
2023-10-04T07:18:06.989Z,3.97
2023-10-04T07:20:34.941Z,5.60
2023-10-04T07:23:04.002Z,3.40
2023-10-04T07:25:32.126Z,4.00
2023-10-04T07:28:02.273Z,4.13
2023-10-04T07:30:29.328Z,3.37
2023-10-04T07:32:58.253Z,4.40
2023-10-04T07:35:25.674Z,3.73
2023-10-04T07:37:53.752Z,3.27
2023-10-04T07:40:23.185Z,3.80
2023-10-04T07:42:53.279Z,4.20
2023-10-04T07:45:21.324Z,3.53
2023-10-04T07:47:48.398Z,3.50
2023-10-04T07:50:19.053Z,3.30
2023-10-04T07:52:46.289Z,3.80
2023-10-04T07:55:18.288Z,3.63
2023-10-04T07:57:45.554Z,5.90
2023-10-04T08:00:15.196Z,3.53
2023-10-04T08:02:46.778Z,4.43
2023-10-04T08:05:19.372Z,3.10
2023-10-04T08:07:46.552Z,3.60
2023-10-04T08:10:14.680Z,3.63
2023-10-04T08:12:42.848Z,4.30
2023-10-04T08:15:13.838Z,3.90
2023-10-04T08:17:43.321Z,3.40
2023-10-04T08:20:13.147Z,3.50
2023-10-04T08:22:40.642Z,4.30
2023-10-04T08:25:09.464Z,4.03
2023-10-04T08:27:37.875Z,4.57
2023-10-04T08:30:06.362Z,3.73
2023-10-04T08:32:34.031Z,3.67
2023-10-04T08:35:01.588Z,4.13
2023-10-04T08:37:28.676Z,3.00
2023-10-04T08:39:55.773Z,5.73
2023-10-04T08:42:24.449Z,3.60
2023-10-04T08:44:52.718Z,3.60
2023-10-04T08:47:20.684Z,3.70
2023-10-04T08:49:53.980Z,3.73
2023-10-04T08:52:25.456Z,3.50
2023-10-04T08:54:58.590Z,4.03
2023-10-04T08:57:26.526Z,3.30
2023-10-04T08:59:55.738Z,4.00
2023-10-04T09:02:24.405Z,3.60
2023-10-04T09:04:51.946Z,3.33
2023-10-04T09:07:19.997Z,3.87
2023-10-04T09:09:47.581Z,3.90
2023-10-04T09:12:14.698Z,3.83
2023-10-04T09:14:41.849Z,4.90
2023-10-04T09:17:14.448Z,3.80
2023-10-04T09:19:42.291Z,3.83
2023-10-04T09:22:09.959Z,3.57
2023-10-04T09:24:53.758Z,3.87
2023-10-04T09:27:21.858Z,4.13
2023-10-04T09:29:49.318Z,3.00
2023-10-04T09:32:17.354Z,4.13
2023-10-04T09:34:56.425Z,3.30
2023-10-04T09:37:23.726Z,3.17
2023-10-04T09:39:50.789Z,3.73
2023-10-04T09:42:17.542Z,4.00
2023-10-04T09:44:44.625Z,3.53
2023-10-04T09:47:11.566Z,3.33
2023-10-04T09:49:49.570Z,4.47
2023-10-04T09:52:17.412Z,3.23
2023-10-04T09:54:44.506Z,2.77
2023-10-04T09:57:12.732Z,3.40
2023-10-04T09:59:41.381Z,3.43
2023-10-04T10:02:10.242Z,3.60
2023-10-04T10:04:43.931Z,3.73
2023-10-04T10:07:16.665Z,3.00
2023-10-04T10:10:00.463Z,3.17
2023-10-04T10:12:30.663Z,3.20
2023-10-04T10:14:57.711Z,3.13
2023-10-04T10:17:24.948Z,2.77
2023-10-04T10:19:52.439Z,3.40
2023-10-04T10:22:19.798Z,3.03
2023-10-04T10:24:49.768Z,4.23
2023-10-04T10:27:20.551Z,3.60
2023-10-04T10:29:48.327Z,3.67
2023-10-04T10:32:20.973Z,3.07
2023-10-04T10:34:50.519Z,2.73
2023-10-04T10:37:19.946Z,3.43
2023-10-04T10:39:48.739Z,3.83
2023-10-04T10:42:16.541Z,2.80
2023-10-04T10:44:44.080Z,3.30
2023-10-04T10:47:16.108Z,3.20
2023-10-04T10:49:52.553Z,4.40
2023-10-04T10:52:31.753Z,4.00
2023-10-04T10:54:59.861Z,3.50
2023-10-04T10:57:29.430Z,3.83
2023-10-04T10:59:57.120Z,5.03
2023-10-04T11:02:25.150Z,3.67
2023-10-04T11:04:53.124Z,4.13
2023-10-04T11:07:22.353Z,3.60
2023-10-04T11:09:50.758Z,4.00
2023-10-04T11:12:22.009Z,3.23
2023-10-04T11:14:50.268Z,3.33
2023-10-04T11:17:17.329Z,3.23
2023-10-04T11:19:45.118Z,2.80
2023-10-04T11:22:14.479Z,3.83
2023-10-04T11:24:41.854Z,3.53
2023-10-04T11:27:09.745Z,2.90
2023-10-04T11:29:36.964Z,3.57
2023-10-04T11:32:04.918Z,4.23
2023-10-04T11:34:36.409Z,3.43
2023-10-04T11:37:04.721Z,3.37
2023-10-04T11:39:34.226Z,3.90
2023-10-04T11:42:02.153Z,3.70
2023-10-04T11:44:31.474Z,3.50
2023-10-04T11:46:59.610Z,3.77
2023-10-04T11:49:28.846Z,3.37
2023-10-04T11:52:00.191Z,4.40
2023-10-04T11:54:41.262Z,3.50
2023-10-04T11:57:08.705Z,3.53
2023-10-04T11:59:52.367Z,3.80
2023-10-04T12:02:23.661Z,4.13
2023-10-04T12:04:53.024Z,4.23
2023-10-04T12:07:22.733Z,4.17
2023-10-04T12:10:05.820Z,4.57
2023-10-04T12:12:40.619Z,4.33
2023-10-04T12:15:23.195Z,3.33
2023-10-04T12:17:52.190Z,3.43
2023-10-04T12:20:24.987Z,3.93
2023-10-04T12:22:53.954Z,4.27
2023-10-04T12:25:29.215Z,4.07
2023-10-04T12:28:01.939Z,3.80
2023-10-04T12:30:32.588Z,4.27
2023-10-04T12:33:08.791Z,3.73
2023-10-04T12:35:37.637Z,4.50
2023-10-04T12:38:11.585Z,5.00
2023-10-04T12:40:43.180Z,3.80
2023-10-04T12:43:13.569Z,3.77
2023-10-04T12:45:42.130Z,4.50
2023-10-04T12:48:14.514Z,4.57
2023-10-04T12:50:41.378Z,4.20
2023-10-04T12:53:10.424Z,3.77
2023-10-04T12:55:40.641Z,4.70
2023-10-04T12:58:08.129Z,4.03
2023-10-04T13:00:35.823Z,4.73
2023-10-04T13:03:04.183Z,4.47
2023-10-04T13:05:32.228Z,3.90
2023-10-04T13:07:59.336Z,4.13
2023-10-04T13:10:29.496Z,3.90
2023-10-04T13:12:57.414Z,4.03
2023-10-04T13:15:25.287Z,4.10
2023-10-04T13:17:55.100Z,5.03
2023-10-04T13:20:26.260Z,4.10
2023-10-04T13:22:54.217Z,3.70
2023-10-04T13:25:21.161Z,4.28
2023-10-04T13:27:47.955Z,3.75
2023-10-04T13:30:15.793Z,3.57
2023-10-04T13:32:45.829Z,3.70
2023-10-04T13:35:15.386Z,3.97
2023-10-04T13:37:44.395Z,3.83
2023-10-04T13:40:19.564Z,3.97
2023-10-04T13:42:46.666Z,4.20
2023-10-04T13:45:14.457Z,4.27
2023-10-04T13:47:42.229Z,4.47
2023-10-04T13:50:09.547Z,3.87
2023-10-04T13:52:36.291Z,4.10
2023-10-04T13:55:04.552Z,3.93
2023-10-04T13:57:31.360Z,4.13
2023-10-04T13:59:58.319Z,4.03
2023-10-04T14:02:26.115Z,4.63
2023-10-04T14:04:53.075Z,4.78
2023-10-04T14:07:20.550Z,3.47
2023-10-04T14:09:47.697Z,3.17
2023-10-04T14:12:21.367Z,4.63
2023-10-04T14:14:49.286Z,3.73
2023-10-04T14:17:16.908Z,4.07
2023-10-04T14:19:43.878Z,4.57
2023-10-04T14:22:10.739Z,4.10
2023-10-04T14:24:37.429Z,4.67
2023-10-04T14:27:04.240Z,3.90
2023-10-04T14:29:31.747Z,3.73
2023-10-04T14:31:59.639Z,4.67
2023-10-04T14:34:26.439Z,4.00
2023-10-04T14:36:54.101Z,4.27
2023-10-04T14:39:23.967Z,5.07
2023-10-04T14:41:50.954Z,4.10
2023-10-04T14:44:17.642Z,4.37
2023-10-04T14:46:45.075Z,4.20
2023-10-04T14:49:11.895Z,4.77
2023-10-04T14:51:38.570Z,4.60
2023-10-04T14:54:06.118Z,4.53
2023-10-04T14:56:33.350Z,4.43
2023-10-04T14:59:00.106Z,4.43
2023-10-04T15:01:27.212Z,4.40
2023-10-04T15:03:57.948Z,4.13
2023-10-04T15:06:31.203Z,5.37
2023-10-04T15:08:58.059Z,4.80
2023-10-04T15:11:29.900Z,5.00
2023-10-04T15:13:58.526Z,4.60
2023-10-04T15:16:25.533Z,4.17
2023-10-04T15:18:52.525Z,4.83
2023-10-04T15:21:20.505Z,4.33
2023-10-04T15:23:47.605Z,4.67
2023-10-04T15:26:14.732Z,4.90
2023-10-04T15:28:44.169Z,4.63
2023-10-04T15:31:12.365Z,4.87
2023-10-04T15:33:39.532Z,4.50
2023-10-04T15:36:07.327Z,4.50
2023-10-04T15:38:36.632Z,4.33
2023-10-04T15:41:03.877Z,4.57
2023-10-04T15:43:31.017Z,4.87
2023-10-04T15:45:58.744Z,4.37
2023-10-04T15:48:25.611Z,5.13
2023-10-04T15:50:52.673Z,4.57
2023-10-04T15:53:19.428Z,4.70
2023-10-04T15:55:46.934Z,4.77
2023-10-04T15:58:14.022Z,4.73
2023-10-04T16:00:41.910Z,4.60
2023-10-04T16:03:09.997Z,4.90
2023-10-04T16:05:37.099Z,4.67
2023-10-04T16:08:04.893Z,4.07
2023-10-04T16:10:31.927Z,4.73
2023-10-04T16:13:00.328Z,4.43
2023-10-04T16:15:27.792Z,4.07
2023-10-04T16:17:55.230Z,4.70
2023-10-04T16:20:22.426Z,4.17
2023-10-04T16:22:55.238Z,5.13
2023-10-04T16:25:22.390Z,4.90
2023-10-04T16:27:50.404Z,4.53
2023-10-04T16:30:18.456Z,4.47
2023-10-04T16:32:46.539Z,4.33
2023-10-04T16:35:14.467Z,5.00
2023-10-04T16:37:42.184Z,4.73
2023-10-04T16:40:10.257Z,5.53
2023-10-04T16:42:37.373Z,3.90
2023-10-04T16:45:05.307Z,5.50
2023-10-04T16:47:32.714Z,5.40
2023-10-04T16:49:59.840Z,4.40
2023-10-04T16:52:27.134Z,4.80
2023-10-04T16:54:54.074Z,5.93
2023-10-04T16:57:20.985Z,4.53
2023-10-04T16:59:50.131Z,5.43
2023-10-04T17:02:17.277Z,4.77
2023-10-04T17:04:44.723Z,4.53
2023-10-04T17:07:11.730Z,5.43
2023-10-04T17:09:38.531Z,5.10
2023-10-04T17:12:05.771Z,5.70
2023-10-04T17:14:32.480Z,6.27
2023-10-04T17:16:59.354Z,5.67
2023-10-04T17:19:26.234Z,7.40
2023-10-04T17:21:54.217Z,5.43
2023-10-04T17:24:21.225Z,5.53
2023-10-04T17:26:48.766Z,6.43
2023-10-04T17:29:15.703Z,6.50
2023-10-04T17:31:42.463Z,6.23
2023-10-04T17:34:10.605Z,5.90
2023-10-04T17:36:37.634Z,5.57
2023-10-04T17:39:06.209Z,5.37
2023-10-04T17:41:32.983Z,5.70
2023-10-04T17:43:59.733Z,6.47
2023-10-04T17:46:26.521Z,5.90
2023-10-04T17:48:53.622Z,5.97
2023-10-04T17:51:20.416Z,5.37
2023-10-04T17:53:47.429Z,6.10
2023-10-04T17:56:15.057Z,5.53
2023-10-04T17:58:43.332Z,5.47
2023-10-04T18:01:12.282Z,5.53
2023-10-04T18:03:39.096Z,6.30
2023-10-04T18:06:06.132Z,5.40
2023-10-04T18:08:33.917Z,5.07
2023-10-04T18:11:01.043Z,5.43
2023-10-04T18:13:29.435Z,6.80
2023-10-04T18:15:57.098Z,5.47
2023-10-04T18:18:23.922Z,6.03
2023-10-04T18:20:54.443Z,6.37
2023-10-04T18:23:23.332Z,6.27
2023-10-04T18:25:50.681Z,5.93
2023-10-04T18:28:18.713Z,6.60
2023-10-04T18:30:54.808Z,5.90
2023-10-04T18:33:23.009Z,6.53
2023-10-04T18:35:50.031Z,5.57
2023-10-04T18:38:17.005Z,6.07
2023-10-04T18:40:43.765Z,6.83
2023-10-04T18:43:10.536Z,5.67
2023-10-04T18:45:37.738Z,6.33
2023-10-04T18:48:06.158Z,7.53
2023-10-04T18:50:33.148Z,6.43
2023-10-04T18:53:03.262Z,6.20
2023-10-04T18:55:34.156Z,5.80
2023-10-04T18:58:01.251Z,6.47
2023-10-04T19:00:29.803Z,5.90
2023-10-04T19:02:58.361Z,6.10
2023-10-04T19:05:25.864Z,5.50
2023-10-04T19:07:54.189Z,6.30
2023-10-04T19:10:22.530Z,5.57
2023-10-04T19:12:50.217Z,6.97
2023-10-04T19:15:17.463Z,6.97
2023-10-04T19:17:45.233Z,6.27
2023-10-04T19:20:13.190Z,6.30
2023-10-04T19:22:42.881Z,6.53
2023-10-04T19:25:11.326Z,6.87
2023-10-04T19:27:39.106Z,6.17
2023-10-04T19:30:09.040Z,6.53
2023-10-04T19:32:37.219Z,6.13
2023-10-04T19:35:04.933Z,5.40
2023-10-04T19:37:31.725Z,6.47
2023-10-04T19:40:00.329Z,5.37
2023-10-04T19:42:29.624Z,6.80
2023-10-04T19:44:56.647Z,7.27
2023-10-04T19:47:23.435Z,6.53
2023-10-04T19:49:50.418Z,5.90
2023-10-04T19:52:17.959Z,5.80
2023-10-04T19:54:45.102Z,5.37
2023-10-04T19:57:13.252Z,6.67
2023-10-04T19:59:40.070Z,6.93
2023-10-04T20:02:08.380Z,5.63
2023-10-04T20:04:36.871Z,6.10
2023-10-04T20:07:04.526Z,7.37
2023-10-04T20:09:36.344Z,6.03
2023-10-04T20:12:07.293Z,6.47
2023-10-04T20:14:34.787Z,5.80
2023-10-04T20:17:01.503Z,5.60
2023-10-04T20:19:29.182Z,5.60
2023-10-04T20:21:56.266Z,5.13
2023-10-04T20:24:23.210Z,6.40
2023-10-04T20:26:50.283Z,6.50
2023-10-04T20:29:17.342Z,5.90
2023-10-04T20:31:45.031Z,6.00
2023-10-04T20:34:12.797Z,5.57
2023-10-04T20:36:40.189Z,6.20
2023-10-04T20:39:08.517Z,5.10
2023-10-04T20:41:35.513Z,6.47
2023-10-04T20:44:03.733Z,5.50
2023-10-04T20:46:30.938Z,5.90
2023-10-04T20:48:58.662Z,5.60
2023-10-04T20:51:29.500Z,5.67
2023-10-04T20:53:56.939Z,6.23
2023-10-04T20:56:27.551Z,5.67
2023-10-04T20:58:54.615Z,6.13
2023-10-04T21:01:21.668Z,5.60
2023-10-04T21:03:48.871Z,5.57
2023-10-04T21:06:16.837Z,6.30
2023-10-04T21:08:43.872Z,6.50
2023-10-04T21:11:11.720Z,6.00
2023-10-04T21:13:40.638Z,5.57
2023-10-04T21:16:08.452Z,5.90
2023-10-04T21:18:35.428Z,6.33
2023-10-04T21:21:02.363Z,5.40
2023-10-04T21:23:31.087Z,5.50
2023-10-04T21:25:59.524Z,5.73
2023-10-04T21:28:26.725Z,5.03
2023-10-04T21:30:57.788Z,6.40
2023-10-04T21:33:28.730Z,5.97
2023-10-04T21:36:05.258Z,5.90
2023-10-04T21:38:33.862Z,6.17
2023-10-04T21:41:06.470Z,5.63
2023-10-04T21:43:35.238Z,5.73
2023-10-04T21:46:08.942Z,6.27
2023-10-04T21:48:36.080Z,5.70
2023-10-04T21:51:04.688Z,5.63
2023-10-04T21:53:31.439Z,5.90
2023-10-04T21:56:00.007Z,5.27
2023-10-04T21:58:26.788Z,5.20
2023-10-04T22:00:54.805Z,4.93
2023-10-04T22:03:26.328Z,5.00
2023-10-04T22:05:58.197Z,5.90
2023-10-04T22:08:28.307Z,6.00
2023-10-04T22:10:56.062Z,6.00
2023-10-04T22:13:24.040Z,5.57
2023-10-04T22:15:51.945Z,5.30
2023-10-04T22:18:19.874Z,5.33
2023-10-04T22:20:46.990Z,5.87
2023-10-04T22:23:14.083Z,5.40
2023-10-04T22:25:42.164Z,5.53
2023-10-04T22:28:09.381Z,5.20
2023-10-04T22:30:37.088Z,5.67
2023-10-04T22:33:05.074Z,5.40
2023-10-04T22:35:33.784Z,6.20
2023-10-04T22:38:01.090Z,6.17
2023-10-04T22:40:28.132Z,5.40
2023-10-04T22:42:57.090Z,6.13
2023-10-04T22:45:24.228Z,5.90
2023-10-04T22:47:52.562Z,5.57
2023-10-04T22:50:21.233Z,5.67
2023-10-04T22:52:48.379Z,6.07
2023-10-04T22:55:16.155Z,5.83
2023-10-04T22:57:43.051Z,6.47
2023-10-04T23:00:21.539Z,5.97
2023-10-04T23:02:48.406Z,6.73
2023-10-04T23:05:17.512Z,5.80
2023-10-04T23:07:45.005Z,5.57
2023-10-04T23:10:11.883Z,6.13
2023-10-04T23:12:40.129Z,6.73
2023-10-04T23:15:13.831Z,6.27
2023-10-04T23:17:42.882Z,7.17
2023-10-04T23:20:24.878Z,6.87
2023-10-04T23:22:52.387Z,5.47
2023-10-04T23:25:20.845Z,6.70
2023-10-04T23:27:48.268Z,5.93
2023-10-04T23:30:19.541Z,6.43
2023-10-04T23:32:47.510Z,6.27
2023-10-04T23:35:19.714Z,5.90
2023-10-04T23:37:47.730Z,6.20
2023-10-04T23:40:18.703Z,6.00
2023-10-04T23:42:47.670Z,6.83
2023-10-04T23:45:19.124Z,6.93
2023-10-04T23:48:00.231Z,6.07
2023-10-04T23:50:28.836Z,7.20
2023-10-04T23:52:57.861Z,6.37
2023-10-04T23:55:27.680Z,6.50
2023-10-04T23:57:56.621Z,6.70
